Kezdőlap
METAR-TAF:

METAR-TAF

Repülőterek :

Montichiari

Brescia, Olaszország

földrajzi szélesség: 45-24-02N, földrajzi hosszúság: 010-18-59E, magasság: 104 m

Jelenlegi meteorológiai megfigyelések

A jelentés 27 perccel ezelõtt készült, 08:20 UTC
Nyugat-északnyugati szél 3 kt
Hőmérséklet 1°C
Páratartalom 93%
Légköri nyomás 1014 hPa
Látótávolság 10 km, vagy több

METAR: LIPO 280820Z AUTO 29003KT 9999 BKN110/// 01/M00 Q1014

Idő: 09:47 (08:47 UTC)

Előrejelzés

A jelentés 3 órával és 47 perccel ezelõtt készült, 05:00 UTC
Az előrejelzés 28-én 06 óra UTC és 29-én 06 óra UTC között érvényes
Nyugati szél 5 kt
Látótávolság 10 km, vagy több
Kevés felhő 7000 lábon
29-én 00 óra UTC és 29-én 02 óra UTC között fokozatosan kialakuló
Látótávolság: 4000 m
Párásság

TAF: LIPO 280500Z 2806/2906 27005KT 9999 FEW070 BECMG 2900/2902 4000 BR

Meteorológiai megfigyelések és előrejelzések több, mint 4000 repülőtéren (METAR és TAF jelentéseket).

A térképen piros és sárga pontok jelzik az elérhető meteorológiai állomásokat.

Mozgassa az egeret a pont fölött, hogy megjelenjen az állomás neve.

Azután kattintson az időjárási megfigyelések és előrejelzések megtekintéséhez.

A térkép megváltoztatása: kattintson a fekete keresztel jelölt zöld gombra ráközelítéshez, a vonallal jelölt zöld gombra távolításhoz, vagy a zöld nyilakra a szomszédos térképek eléréséhez.


METAR-TAF: